createdAt,value
2022-08-17T00:00:43.125Z,7.40
2022-08-17T00:03:17.500Z,7.70
2022-08-17T00:05:49.620Z,7.47
2022-08-17T00:08:21.287Z,7.80
2022-08-17T00:10:51.420Z,7.40
2022-08-17T00:13:26.088Z,7.75
2022-08-17T00:15:58.975Z,7.38
2022-08-17T00:18:58.346Z,8.10
2022-08-17T00:21:23.781Z,8.23
2022-08-17T00:23:55.437Z,7.57
2022-08-17T00:26:43.656Z,7.82
2022-08-17T00:29:19.757Z,7.07
2022-08-17T00:31:50.062Z,7.28
2022-08-17T00:34:19.382Z,7.63
2022-08-17T00:36:48.415Z,6.97
2022-08-17T00:39:17.380Z,6.97
2022-08-17T00:41:48.727Z,7.30
2022-08-17T00:44:19.894Z,7.38
2022-08-17T00:46:48.525Z,6.85
2022-08-17T00:49:19.499Z,7.03
2022-08-17T00:51:53.655Z,6.93
2022-08-17T00:54:28.706Z,6.57
2022-08-17T00:57:02.379Z,7.20
2022-08-17T00:59:40.568Z,6.55
2022-08-17T01:02:11.354Z,6.55
2022-08-17T01:04:41.208Z,6.15
2022-08-17T01:07:13.541Z,5.88
2022-08-17T01:09:44.271Z,5.28
2022-08-17T01:12:14.147Z,5.03
2022-08-17T01:14:44.420Z,5.00
2022-08-17T01:17:13.344Z,4.90
2022-08-17T01:19:44.082Z,4.88
2022-08-17T01:22:22.756Z,5.35
2022-08-17T01:24:54.492Z,4.78
2022-08-17T01:27:23.429Z,5.03
2022-08-17T01:30:57.465Z,5.50
2022-08-17T01:32:57.070Z,5.35
2022-08-17T01:35:25.719Z,5.35
2022-08-17T01:37:56.196Z,5.57
2022-08-17T01:40:30.351Z,5.80
2022-08-17T01:43:01.875Z,5.30
2022-08-17T01:45:35.157Z,5.70
2022-08-17T01:48:03.640Z,5.72
2022-08-17T01:50:35.534Z,5.95
2022-08-17T01:55:41.730Z,5.40
2022-08-17T01:58:10.533Z,6.35
2022-08-17T02:00:59.782Z,6.35
2022-08-17T02:03:31.068Z,5.72
2022-08-17T02:06:00.476Z,5.60
2022-08-17T02:08:37.324Z,4.45
2022-08-17T02:11:16.097Z,4.90
2022-08-17T02:13:45.547Z,4.65
2022-08-17T02:16:15.818Z,3.88
2022-08-17T02:18:44.978Z,3.90
2022-08-17T02:21:15.181Z,4.30
2022-08-17T02:23:49.407Z,4.55
2022-08-17T02:26:25.901Z,4.53
2022-08-17T02:28:55.997Z,4.57
2022-08-17T02:31:24.586Z,5.15
2022-08-17T02:34:00.428Z,5.70
2022-08-17T02:36:34.217Z,6.18
2022-08-17T02:39:06.662Z,6.22
2022-08-17T02:41:35.682Z,5.65
2022-08-17T02:44:06.126Z,6.03
2022-08-17T02:46:35.407Z,5.80
2022-08-17T02:49:05.160Z,5.90
2022-08-17T02:51:34.310Z,5.22
2022-08-17T02:54:41.692Z,5.72
2022-08-17T02:56:53.560Z,5.97
2022-08-17T02:59:22.589Z,5.68
2022-08-17T03:01:51.564Z,6.10
2022-08-17T03:04:20.565Z,5.95
2022-08-17T03:06:50.445Z,5.95
2022-08-17T03:09:20.764Z,5.78
2022-08-17T03:11:53.168Z,5.75
2022-08-17T03:14:25.065Z,5.45
2022-08-17T03:16:55.259Z,5.72
2022-08-17T03:19:24.404Z,5.97
2022-08-17T03:21:55.198Z,6.25
2022-08-17T03:24:28.943Z,5.32
2022-08-17T03:26:58.554Z,6.22
2022-08-17T03:29:27.271Z,5.75
2022-08-17T03:31:55.852Z,5.75
2022-08-17T03:34:25.541Z,5.43
2022-08-17T03:36:54.953Z,5.95
2022-08-17T03:39:25.834Z,6.70
2022-08-17T03:41:54.903Z,5.63
2022-08-17T03:44:24.190Z,6.03
2022-08-17T03:47:10.693Z,7.10
2022-08-17T03:49:57.971Z,5.43
2022-08-17T03:52:44.100Z,5.63
2022-08-17T03:55:36.298Z,5.40
2022-08-17T03:58:05.340Z,6.45
2022-08-17T04:00:36.500Z,5.70
2022-08-17T04:03:09.063Z,6.47
2022-08-17T04:05:38.390Z,6.47
2022-08-17T04:08:10.473Z,5.37
2022-08-17T04:10:45.144Z,5.95
2022-08-17T04:13:15.511Z,5.72
2022-08-17T04:15:53.129Z,6.60
2022-08-17T04:18:22.148Z,6.68
2022-08-17T04:20:51.300Z,7.05
2022-08-17T04:23:20.939Z,6.72
2022-08-17T04:25:53.370Z,5.82
2022-08-17T04:28:22.571Z,6.22
2022-08-17T04:30:52.160Z,6.07
2022-08-17T04:33:24.314Z,6.43
2022-08-17T04:35:55.343Z,6.32
2022-08-17T04:38:27.497Z,5.57
2022-08-17T04:41:16.542Z,6.95
2022-08-17T04:43:48.155Z,6.13
2022-08-17T04:48:51.041Z,6.07
2022-08-17T04:51:22.776Z,6.43
2022-08-17T04:56:27.391Z,6.65
2022-08-17T04:58:59.083Z,6.53
2022-08-17T05:01:29.691Z,7.57
2022-08-17T05:04:02.382Z,5.80
2022-08-17T05:06:50.006Z,4.80
2022-08-17T05:09:19.876Z,5.60
2022-08-17T05:11:50.881Z,5.20
2022-08-17T05:14:32.854Z,5.30
2022-08-17T05:17:07.359Z,4.85
2022-08-17T05:19:41.312Z,5.10
2022-08-17T05:22:10.203Z,5.60
2022-08-17T05:24:43.658Z,5.70
2022-08-17T05:27:24.694Z,4.90
2022-08-17T05:30:00.919Z,6.38
2022-08-17T05:32:38.921Z,6.05
2022-08-17T05:35:17.806Z,6.75
2022-08-17T05:37:46.944Z,6.13
2022-08-17T05:40:16.498Z,5.80
2022-08-17T05:42:47.363Z,6.03
2022-08-17T05:45:23.665Z,6.25
2022-08-17T05:50:46.159Z,7.10
2022-08-17T05:53:24.440Z,6.95
2022-08-17T05:56:04.058Z,6.78
2022-08-17T05:58:42.741Z,6.78
2022-08-17T06:01:21.216Z,7.25
2022-08-17T06:03:54.977Z,7.65
2022-08-17T06:06:42.369Z,7.35
2022-08-17T06:09:36.624Z,8.02
2022-08-17T06:12:23.569Z,8.35
2022-08-17T06:15:14.936Z,8.18
2022-08-17T06:17:44.975Z,8.05
2022-08-17T06:20:16.323Z,8.52
2022-08-17T06:22:48.531Z,8.32
2022-08-17T06:25:20.300Z,8.13
2022-08-17T06:30:26.289Z,7.35
2022-08-17T06:32:59.815Z,8.15
2022-08-17T06:35:34.437Z,7.95
2022-08-17T06:38:37.178Z,7.70
2022-08-17T06:41:15.146Z,7.70
2022-08-17T06:44:03.010Z,8.18
2022-08-17T06:46:39.432Z,8.10
2022-08-17T06:49:20.182Z,7.95
2022-08-17T06:51:54.466Z,8.68
2022-08-17T06:54:34.775Z,9.02
2022-08-17T06:57:14.748Z,10.32
2022-08-17T06:59:55.702Z,8.82
2022-08-17T07:03:02.809Z,9.30
2022-08-17T07:05:38.830Z,8.35
2022-08-17T07:08:15.131Z,8.38
2022-08-17T07:10:50.530Z,8.60
2022-08-17T07:13:31.347Z,9.85
2022-08-17T07:16:17.253Z,9.85
2022-08-17T07:18:48.613Z,9.50
2022-08-17T07:21:31.127Z,8.13
2022-08-17T07:24:28.103Z,7.97
2022-08-17T07:27:10.919Z,8.48
2022-08-17T07:29:44.253Z,8.30
2022-08-17T07:32:18.680Z,8.02
2022-08-17T07:35:41.069Z,8.65
2022-08-17T07:38:24.989Z,8.48
2022-08-17T07:41:06.691Z,7.85
2022-08-17T07:43:38.125Z,7.90
2022-08-17T07:46:37.524Z,8.70
2022-08-17T07:49:23.163Z,8.15
2022-08-17T07:52:24.146Z,7.78
2022-08-17T07:54:50.080Z,7.82
2022-08-17T07:57:37.224Z,8.25
2022-08-17T08:00:30.810Z,7.00
2022-08-17T08:03:13.473Z,6.90
2022-08-17T08:05:54.220Z,6.45
2022-08-17T08:08:28.690Z,6.97
2022-08-17T08:11:06.432Z,7.07
2022-08-17T08:13:40.680Z,6.95
2022-08-17T08:16:24.557Z,6.30
2022-08-17T08:18:58.102Z,6.78
2022-08-17T08:21:36.737Z,6.43
2022-08-17T08:24:24.524Z,6.70
2022-08-17T08:27:09.323Z,6.45
2022-08-17T08:29:47.629Z,7.75
2022-08-17T08:32:21.921Z,7.93
2022-08-17T08:35:04.130Z,8.45
2022-08-17T08:37:45.283Z,9.13
2022-08-17T08:40:31.614Z,9.15
2022-08-17T08:43:10.273Z,9.68
2022-08-17T08:45:52.341Z,8.80
2022-08-17T08:48:55.998Z,8.43
2022-08-17T08:51:39.015Z,8.77
2022-08-17T08:54:26.843Z,7.80
2022-08-17T09:00:08.172Z,6.97
2022-08-17T09:03:02.758Z,6.78
2022-08-17T09:05:44.324Z,7.35
2022-08-17T09:08:26.128Z,6.95
2022-08-17T09:11:03.277Z,7.50
2022-08-17T09:13:43.589Z,7.30
2022-08-17T09:16:17.623Z,6.95
2022-08-17T09:19:00.773Z,7.40
2022-08-17T09:21:47.888Z,7.43
2022-08-17T09:24:25.185Z,7.45
2022-08-17T09:27:00.187Z,7.25
2022-08-17T09:29:35.418Z,6.50
2022-08-17T09:32:10.750Z,6.03
2022-08-17T09:34:46.991Z,6.60
2022-08-17T09:37:24.343Z,5.88
2022-08-17T09:40:05.682Z,6.20
2022-08-17T09:42:43.995Z,5.60
2022-08-17T09:45:29.276Z,5.03
2022-08-17T09:48:04.902Z,5.80
2022-08-17T09:51:03.139Z,5.53
2022-08-17T09:53:33.357Z,6.30
2022-08-17T09:56:19.349Z,6.07
2022-08-17T09:59:14.811Z,5.63
2022-08-17T10:01:52.937Z,4.97
2022-08-17T10:04:33.813Z,6.13
2022-08-17T10:07:08.549Z,6.25
2022-08-17T10:09:45.958Z,5.90
2022-08-17T10:12:30.102Z,6.25
2022-08-17T10:15:09.846Z,5.85
2022-08-17T10:17:53.576Z,5.60
2022-08-17T10:20:27.688Z,6.43
2022-08-17T10:23:18.652Z,5.65
2022-08-17T10:26:10.047Z,5.80
2022-08-17T10:28:44.914Z,5.88
2022-08-17T10:31:40.800Z,5.97
2022-08-17T10:34:41.015Z,5.63
2022-08-17T10:37:25.404Z,5.87
2022-08-17T10:40:08.878Z,6.47
2022-08-17T10:42:47.311Z,6.53
2022-08-17T10:45:20.670Z,6.85
2022-08-17T10:48:05.104Z,5.88
2022-08-17T10:50:49.848Z,6.22
2022-08-17T10:53:55.846Z,6.47
2022-08-17T10:56:41.731Z,5.78
2022-08-17T10:59:10.609Z,5.72
2022-08-17T11:02:13.406Z,6.00
2022-08-17T11:04:59.837Z,5.45
2022-08-17T11:07:47.782Z,4.68
2022-08-17T11:10:51.916Z,5.53
2022-08-17T11:13:30.855Z,5.38
2022-08-17T11:16:13.285Z,5.68
2022-08-17T11:19:10.184Z,5.47
2022-08-17T11:22:15.545Z,5.70
2022-08-17T11:24:51.742Z,6.57
2022-08-17T11:27:28.125Z,5.93
2022-08-17T11:30:02.425Z,5.25
2022-08-17T11:32:39.102Z,5.40
2022-08-17T11:35:34.977Z,5.55
2022-08-17T11:38:16.445Z,6.82
2022-08-17T11:41:15.527Z,4.82
2022-08-17T11:44:02.132Z,5.40
2022-08-17T11:47:00.082Z,5.63
2022-08-17T11:50:01.731Z,5.88
2022-08-17T11:52:40.807Z,5.18
2022-08-17T11:55:34.430Z,5.97
2022-08-17T11:58:06.616Z,5.68
2022-08-17T12:00:51.577Z,5.85
2022-08-17T12:03:27.105Z,5.70
2022-08-17T12:06:05.783Z,5.72
2022-08-17T12:08:41.949Z,5.88
2022-08-17T12:11:19.101Z,5.72
2022-08-17T12:14:16.952Z,6.45
2022-08-17T12:16:59.992Z,6.18
2022-08-17T12:19:29.823Z,6.18
2022-08-17T12:22:05.587Z,6.28
2022-08-17T12:24:46.486Z,7.00
2022-08-17T12:27:48.938Z,6.15
2022-08-17T12:30:19.648Z,6.07
2022-08-17T12:32:50.355Z,7.03
2022-08-17T12:35:22.795Z,6.43
2022-08-17T12:37:52.982Z,6.40
2022-08-17T12:40:27.676Z,6.18
2022-08-17T12:42:59.339Z,6.43
2022-08-17T12:45:32.423Z,6.25
2022-08-17T12:48:02.826Z,6.03
2022-08-17T12:50:32.421Z,5.97
2022-08-17T12:53:02.880Z,6.32
2022-08-17T12:55:39.051Z,6.22
2022-08-17T12:58:14.346Z,5.95
2022-08-17T13:00:50.239Z,5.68
2022-08-17T13:03:21.214Z,5.32
2022-08-17T13:05:59.115Z,4.88
2022-08-17T13:08:31.481Z,5.15
2022-08-17T13:11:02.688Z,5.47
2022-08-17T13:13:33.138Z,5.43
2022-08-17T13:16:09.885Z,5.23
2022-08-17T13:18:45.314Z,5.40
2022-08-17T13:21:23.888Z,5.55
2022-08-17T13:23:58.822Z,5.43
2022-08-17T13:26:32.675Z,5.13
2022-08-17T13:29:03.148Z,5.70
2022-08-17T13:31:47.458Z,5.90
2022-08-17T13:34:44.536Z,5.13
2022-08-17T13:37:33.702Z,5.80
2022-08-17T13:40:25.831Z,5.20
2022-08-17T13:42:56.639Z,5.18
2022-08-17T13:46:08.781Z,5.60
2022-08-17T13:48:39.406Z,5.00
2022-08-17T13:51:22.634Z,5.30
2022-08-17T13:54:13.611Z,4.93
2022-08-17T13:56:55.419Z,5.40
2022-08-17T14:02:20.316Z,4.63
2022-08-17T14:04:50.666Z,4.97
2022-08-17T14:07:29.744Z,5.80
2022-08-17T14:10:02.155Z,5.38
2022-08-17T14:12:33.246Z,5.78
2022-08-17T14:15:02.314Z,5.30
2022-08-17T14:17:35.002Z,5.15
2022-08-17T14:20:12.049Z,5.57
2022-08-17T14:22:45.664Z,5.20
2022-08-17T14:25:16.734Z,5.65
2022-08-17T14:27:52.893Z,6.05
2022-08-17T14:30:25.839Z,5.50
2022-08-17T14:32:58.293Z,5.30
2022-08-17T14:35:29.566Z,5.30
2022-08-17T14:37:58.689Z,5.72
2022-08-17T14:40:28.311Z,4.82
2022-08-17T14:42:58.079Z,5.43
2022-08-17T14:45:33.016Z,4.97
2022-08-17T14:48:05.794Z,5.57
2022-08-17T14:50:38.473Z,5.00
2022-08-17T14:53:08.642Z,5.20
2022-08-17T14:55:41.524Z,4.85
2022-08-17T14:58:10.510Z,5.05
2022-08-17T15:00:40.214Z,4.97
2022-08-17T15:03:08.837Z,5.05
2022-08-17T15:05:40.402Z,5.28
2022-08-17T15:10:39.388Z,4.80
2022-08-17T15:13:19.260Z,5.18
2022-08-17T15:15:49.203Z,5.55
2022-08-17T15:18:19.100Z,4.80
2022-08-17T15:20:51.098Z,5.25
2022-08-17T15:23:22.413Z,5.25
2022-08-17T15:25:52.627Z,5.03
2022-08-17T15:28:23.171Z,5.88
2022-08-17T15:30:52.924Z,5.13
2022-08-17T15:33:30.414Z,5.20
2022-08-17T15:36:03.513Z,5.15
2022-08-17T15:38:35.465Z,6.55
2022-08-17T15:41:04.921Z,6.50
2022-08-17T15:43:34.148Z,5.68
2022-08-17T15:46:05.854Z,6.40
2022-08-17T15:48:42.462Z,5.75
2022-08-17T15:51:14.992Z,6.57
2022-08-17T15:53:45.311Z,6.32
2022-08-17T15:56:15.879Z,6.90
2022-08-17T15:58:47.061Z,5.95
2022-08-17T16:02:53.876Z,6.57
2022-08-17T16:04:26.897Z,6.38
2022-08-17T16:07:00.569Z,6.25
2022-08-17T16:09:29.723Z,6.38
2022-08-17T16:11:59.413Z,6.55
2022-08-17T16:14:33.578Z,6.47
2022-08-17T16:17:04.692Z,6.80
2022-08-17T16:19:34.521Z,6.63
2022-08-17T16:22:05.461Z,6.22
2022-08-17T16:24:34.955Z,6.28
2022-08-17T16:27:04.637Z,6.38
2022-08-17T16:29:42.538Z,6.45
2022-08-17T16:32:14.709Z,6.15
2022-08-17T16:34:44.250Z,6.90
2022-08-17T16:37:14.724Z,6.72
2022-08-17T16:39:43.631Z,6.47
2022-08-17T16:42:24.673Z,6.65
2022-08-17T16:44:54.790Z,7.03
2022-08-17T16:47:24.175Z,7.80
2022-08-17T16:49:53.491Z,7.22
2022-08-17T16:52:32.593Z,7.68
2022-08-17T16:55:04.471Z,6.95
2022-08-17T16:57:33.198Z,6.65
2022-08-17T17:00:02.156Z,8.10
2022-08-17T17:02:33.471Z,6.95
2022-08-17T17:05:13.252Z,7.00
2022-08-17T17:07:53.798Z,6.85
2022-08-17T17:10:25.438Z,7.47
2022-08-17T17:13:00.825Z,7.53
2022-08-17T17:15:45.165Z,6.95
2022-08-17T17:20:51.253Z,7.13
2022-08-17T17:23:35.442Z,6.78
2022-08-17T17:26:13.055Z,7.20
2022-08-17T17:28:57.032Z,7.40
2022-08-17T17:31:31.006Z,7.55
2022-08-17T17:34:04.114Z,7.25
2022-08-17T17:36:39.818Z,7.55
2022-08-17T17:39:14.612Z,6.63
2022-08-17T17:41:48.483Z,7.35
2022-08-17T17:44:23.915Z,7.50
2022-08-17T17:46:56.257Z,7.53
2022-08-17T17:49:26.722Z,7.30
2022-08-17T17:52:07.874Z,7.38
2022-08-17T17:54:52.784Z,6.93
2022-08-17T17:57:34.454Z,6.88
2022-08-17T18:00:09.538Z,7.15
2022-08-17T18:02:51.882Z,7.15
2022-08-17T18:05:48.825Z,7.82
2022-08-17T18:08:37.666Z,9.68
2022-08-17T18:11:24.601Z,7.10
2022-08-17T18:14:14.590Z,8.40
2022-08-17T18:16:44.107Z,8.30
2022-08-17T18:19:15.283Z,8.10
2022-08-17T18:21:47.118Z,7.70
2022-08-17T18:24:15.954Z,8.27
2022-08-17T18:26:55.112Z,8.45
2022-08-17T18:29:34.546Z,8.95
2022-08-17T18:32:23.131Z,8.32
2022-08-17T18:34:54.479Z,7.90
2022-08-17T18:37:45.207Z,8.02
2022-08-17T18:40:34.716Z,8.13
2022-08-17T18:43:08.617Z,8.10
2022-08-17T18:45:41.890Z,8.05
2022-08-17T18:48:24.901Z,7.90
2022-08-17T18:50:55.347Z,8.88
2022-08-17T18:53:34.189Z,9.45
2022-08-17T18:56:24.691Z,8.25
2022-08-17T18:59:11.652Z,8.40
2022-08-17T19:01:54.610Z,8.93
2022-08-17T19:04:34.090Z,7.68
2022-08-17T19:07:09.387Z,8.32
2022-08-17T19:09:43.778Z,9.48
2022-08-17T19:12:27.211Z,8.70
2022-08-17T19:14:59.778Z,9.35
2022-08-17T19:17:37.985Z,8.60
2022-08-17T19:20:13.463Z,10.25
2022-08-17T19:23:10.428Z,9.10
2022-08-17T19:25:44.472Z,9.23
2022-08-17T19:28:22.641Z,9.35
2022-08-17T19:30:57.371Z,9.18
2022-08-17T19:33:28.090Z,8.90
2022-08-17T19:36:07.741Z,9.90
2022-08-17T19:38:43.737Z,9.48
2022-08-17T19:41:20.982Z,9.05
2022-08-17T19:44:00.595Z,9.02
2022-08-17T19:46:48.584Z,8.88
2022-08-17T19:49:33.045Z,8.73
2022-08-17T19:52:24.221Z,8.32
2022-08-17T19:55:01.974Z,9.13
2022-08-17T19:57:40.854Z,9.13
2022-08-17T20:00:13.438Z,8.60
2022-08-17T20:02:55.680Z,8.88
2022-08-17T20:05:44.231Z,9.57
2022-08-17T20:08:25.532Z,9.23
2022-08-17T20:10:59.481Z,9.40
2022-08-17T20:13:35.193Z,9.15
2022-08-17T20:16:05.407Z,8.93
2022-08-17T20:18:47.518Z,8.88
2022-08-17T20:21:23.412Z,8.77
2022-08-17T20:23:57.043Z,9.07
2022-08-17T20:26:30.935Z,9.10
2022-08-17T20:29:36.930Z,9.60
2022-08-17T20:32:29.997Z,9.07
2022-08-17T20:35:21.078Z,8.70
2022-08-17T20:38:01.748Z,9.15
2022-08-17T20:40:38.472Z,9.48
2022-08-17T20:43:46.307Z,9.02
2022-08-17T20:46:29.478Z,9.38
2022-08-17T20:49:20.583Z,8.73
2022-08-17T20:52:02.981Z,8.80
2022-08-17T20:54:49.135Z,9.18
2022-08-17T20:57:47.591Z,9.00
2022-08-17T21:00:45.536Z,9.07
2022-08-17T21:03:51.281Z,8.93
2022-08-17T21:06:28.456Z,8.93
2022-08-17T21:09:20.991Z,9.30
2022-08-17T21:12:04.343Z,9.20
2022-08-17T21:14:58.267Z,8.88
2022-08-17T21:17:42.150Z,9.10
2022-08-17T21:20:27.832Z,9.02
2022-08-17T21:23:30.060Z,9.23
2022-08-17T21:26:28.106Z,9.90
2022-08-17T21:29:30.943Z,9.90
2022-08-17T21:32:24.736Z,10.02
2022-08-17T21:35:25.086Z,9.35
2022-08-17T21:38:00.521Z,9.52
2022-08-17T21:40:33.366Z,8.77
2022-08-17T21:43:20.310Z,9.68
2022-08-17T21:45:57.929Z,9.20
2022-08-17T21:48:30.066Z,10.00
2022-08-17T21:51:05.991Z,9.10
2022-08-17T21:53:42.306Z,9.18
2022-08-17T21:56:14.989Z,9.00
2022-08-17T21:58:48.694Z,9.65
2022-08-17T22:01:25.746Z,9.95
2022-08-17T22:04:09.103Z,9.25
2022-08-17T22:06:41.558Z,10.13
2022-08-17T22:09:19.111Z,9.55
2022-08-17T22:11:55.184Z,9.98
2022-08-17T22:14:53.444Z,9.40
2022-08-17T22:17:21.040Z,9.85
2022-08-17T22:19:54.765Z,9.70
2022-08-17T22:22:31.039Z,9.18
2022-08-17T22:25:04.326Z,9.20
2022-08-17T22:28:04.067Z,9.80
2022-08-17T22:30:39.893Z,9.85
2022-08-17T22:33:31.709Z,9.95
2022-08-17T22:36:13.131Z,9.60
2022-08-17T22:38:43.607Z,9.33
2022-08-17T22:41:37.123Z,9.32
2022-08-17T22:44:23.691Z,9.38
2022-08-17T22:47:00.436Z,9.45
2022-08-17T22:49:33.883Z,9.35
2022-08-17T22:52:08.711Z,10.18
2022-08-17T22:54:55.261Z,9.35
2022-08-17T22:57:51.901Z,9.38
2022-08-17T23:00:34.651Z,9.23
2022-08-17T23:03:14.085Z,10.23
2022-08-17T23:05:45.776Z,10.02
2022-08-17T23:10:46.701Z,8.80
2022-08-17T23:13:15.585Z,9.00
2022-08-17T23:15:44.788Z,9.77
2022-08-17T23:18:15.014Z,9.65
2022-08-17T23:20:44.068Z,10.02
2022-08-17T23:23:15.380Z,10.23
2022-08-17T23:25:46.939Z,10.07
2022-08-17T23:28:17.164Z,9.98
2022-08-17T23:30:49.038Z,9.02
2022-08-17T23:33:26.284Z,9.75
2022-08-17T23:35:55.310Z,9.48
2022-08-17T23:38:25.644Z,9.90
2022-08-17T23:40:54.795Z,10.13
2022-08-17T23:43:28.144Z,9.13
2022-08-17T23:45:59.958Z,10.90
2022-08-17T23:48:36.571Z,10.88
2022-08-17T23:51:13.993Z,10.18
2022-08-17T23:53:47.864Z,10.65
2022-08-17T23:56:20.813Z,10.02
2022-08-17T23:58:49.689Z,9.45
